sensor_id;sensor_type;location;lat;lon;timestamp;pressure;altitude;pressure_sealevel;temperature;humidity
10093;BME280;5085;48.092;11.484;2022-10-29T00:00:25;95951.75;;;12.26;100.00
10093;BME280;5085;48.092;11.484;2022-10-29T00:02:51;95946.91;;;12.23;100.00
10093;BME280;5085;48.092;11.484;2022-10-29T00:05:17;95949.84;;;12.22;100.00
10093;BME280;5085;48.092;11.484;2022-10-29T00:07:43;95950.66;;;12.17;100.00
10093;BME280;5085;48.092;11.484;2022-10-29T00:10:09;95951.47;;;12.18;100.00
10093;BME280;5085;48.092;11.484;2022-10-29T00:12:35;95953.88;;;12.14;100.00
10093;BME280;5085;48.092;11.484;2022-10-29T00:15:02;95953.06;;;12.14;100.00
10093;BME280;5085;48.092;11.484;2022-10-29T00:17:28;95950.34;;;12.14;100.00
10093;BME280;5085;48.092;11.484;2022-10-29T00:19:54;95946.56;;;12.15;100.00
10093;BME280;5085;48.092;11.484;2022-10-29T00:22:21;95947.66;;;12.14;100.00
10093;BME280;5085;48.092;11.484;2022-10-29T00:24:47;95939.56;;;12.14;100.00
10093;BME280;5085;48.092;11.484;2022-10-29T00:27:13;95938.47;;;12.15;100.00
10093;BME280;5085;48.092;11.484;2022-10-29T00:29:39;95938.47;;;12.15;100.00
10093;BME280;5085;48.092;11.484;2022-10-29T00:32:05;95943.06;;;12.14;100.00
10093;BME280;5085;48.092;11.484;2022-10-29T00:34:31;95940.94;;;12.16;100.00
10093;BME280;5085;48.092;11.484;2022-10-29T00:36:57;95943.13;;;12.19;100.00
10093;BME280;5085;48.092;11.484;2022-10-29T00:39:23;95948.78;;;12.23;100.00
10093;BME280;5085;48.092;11.484;2022-10-29T00:41:49;95943.38;;;12.23;100.00
10093;BME280;5085;48.092;11.484;2022-10-29T00:46:50;95942.53;;;12.17;100.00
10093;BME280;5085;48.092;11.484;2022-10-29T00:49:17;95937.94;;;12.13;100.00
10093;BME280;5085;48.092;11.484;2022-10-29T00:51:45;95931.44;;;12.09;100.00
10093;BME280;5085;48.092;11.484;2022-10-29T00:54:13;95935.47;;;12.06;100.00
10093;BME280;5085;48.092;11.484;2022-10-29T00:56:53;95946.53;;;12.05;100.00
10093;BME280;5085;48.092;11.484;2022-10-29T00:59:22;95945.44;;;12.00;100.00
10093;BME280;5085;48.092;11.484;2022-10-29T01:01:49;95945.69;;;11.94;100.00
10093;BME280;5085;48.092;11.484;2022-10-29T01:04:16;95951.31;;;11.87;100.00
10093;BME280;5085;48.092;11.484;2022-10-29T01:06:43;95944.81;;;11.83;100.00
10093;BME280;5085;48.092;11.484;2022-10-29T01:09:09;95945.00;;;11.76;100.00
10093;BME280;5085;48.092;11.484;2022-10-29T01:19:21;95954.34;;;11.59;100.00
10093;BME280;5085;48.092;11.484;2022-10-29T01:30:17;95961.78;;;11.41;100.00
10093;BME280;5085;48.092;11.484;2022-10-29T01:35:37;95952.31;;;11.34;100.00
10093;BME280;5085;48.092;11.484;2022-10-29T01:43:25;95960.06;;;11.25;100.00
10093;BME280;5085;48.092;11.484;2022-10-29T01:46:01;95960.59;;;11.22;100.00
10093;BME280;5085;48.092;11.484;2022-10-29T01:48:34;95948.69;;;11.18;100.00
10093;BME280;5085;48.092;11.484;2022-10-29T01:51:05;95951.34;;;11.13;100.00
10093;BME280;5085;48.092;11.484;2022-10-29T01:53:35;95955.63;;;11.09;100.00
10093;BME280;5085;48.092;11.484;2022-10-29T01:56:02;95954.81;;;11.08;100.00
10093;BME280;5085;48.092;11.484;2022-10-29T01:58:28;95951.84;;;11.05;100.00
10093;BME280;5085;48.092;11.484;2022-10-29T02:03:46;95954.22;;;11.01;100.00
10093;BME280;5085;48.092;11.484;2022-10-29T02:06:18;95943.13;;;10.97;100.00
10093;BME280;5085;48.092;11.484;2022-10-29T02:09:06;95952.31;;;10.96;100.00
10093;BME280;5085;48.092;11.484;2022-10-29T02:11:45;95959.81;;;10.94;100.00
10093;BME280;5085;48.092;11.484;2022-10-29T02:14:21;95956.31;;;10.94;100.00
10093;BME280;5085;48.092;11.484;2022-10-29T02:16:48;95955.50;;;10.93;100.00
10093;BME280;5085;48.092;11.484;2022-10-29T02:19:14;95948.50;;;10.92;100.00
10093;BME280;5085;48.092;11.484;2022-10-29T02:21:41;95955.75;;;10.92;100.00
10093;BME280;5085;48.092;11.484;2022-10-29T02:24:09;95947.69;;;10.92;100.00
10093;BME280;5085;48.092;11.484;2022-10-29T02:26:35;95952.81;;;10.93;100.00
10093;BME280;5085;48.092;11.484;2022-10-29T02:29:01;95952.22;;;10.91;100.00
10093;BME280;5085;48.092;11.484;2022-10-29T02:31:28;95947.91;;;10.90;100.00
10093;BME280;5085;48.092;11.484;2022-10-29T02:33:54;95954.66;;;10.88;100.00
10093;BME280;5085;48.092;11.484;2022-10-29T02:36:20;95944.09;;;10.86;100.00
10093;BME280;5085;48.092;11.484;2022-10-29T02:38:46;95935.47;;;10.84;100.00
10093;BME280;5085;48.092;11.484;2022-10-29T02:41:12;95939.50;;;10.82;100.00
10093;BME280;5085;48.092;11.484;2022-10-29T02:43:38;95935.19;;;10.81;100.00
10093;BME280;5085;48.092;11.484;2022-10-29T02:48:36;95925.72;;;10.78;100.00
10093;BME280;5085;48.092;11.484;2022-10-29T02:51:02;95921.41;;;10.77;100.00
10093;BME280;5085;48.092;11.484;2022-10-29T02:53:28;95915.47;;;10.75;100.00
10093;BME280;5085;48.092;11.484;2022-10-29T02:55:54;95918.16;;;10.75;100.00
10093;BME280;5085;48.092;11.484;2022-10-29T02:58:20;95916.50;;;10.74;100.00
10093;BME280;5085;48.092;11.484;2022-10-29T03:00:49;95911.13;;;10.74;100.00
10093;BME280;5085;48.092;11.484;2022-10-29T03:03:16;95920.59;;;10.76;100.00
10093;BME280;5085;48.092;11.484;2022-10-29T03:05:42;95926.28;;;10.80;100.00
10093;BME280;5085;48.092;11.484;2022-10-29T03:08:08;95925.47;;;10.80;100.00
10093;BME280;5085;48.092;11.484;2022-10-29T03:10:34;95926.28;;;10.80;100.00
10093;BME280;5085;48.092;11.484;2022-10-29T03:13:00;95930.06;;;10.79;100.00
10093;BME280;5085;48.092;11.484;2022-10-29T03:15:26;95922.50;;;10.81;100.00
10093;BME280;5085;48.092;11.484;2022-10-29T03:17:52;95918.19;;;10.80;100.00
10093;BME280;5085;48.092;11.484;2022-10-29T03:20:18;95927.63;;;10.83;100.00
10093;BME280;5085;48.092;11.484;2022-10-29T03:22:44;95928.47;;;10.83;100.00
10093;BME280;5085;48.092;11.484;2022-10-29T03:25:11;95933.59;;;10.85;100.00
10093;BME280;5085;48.092;11.484;2022-10-29T03:27:41;95925.78;;;10.83;100.00
10093;BME280;5085;48.092;11.484;2022-10-29T03:30:09;95933.03;;;10.83;100.00
10093;BME280;5085;48.092;11.484;2022-10-29T03:32:38;95927.91;;;10.81;100.00
10093;BME280;5085;48.092;11.484;2022-10-29T03:35:06;95937.88;;;10.81;100.00
10093;BME280;5085;48.092;11.484;2022-10-29T03:37:32;95932.75;;;10.79;100.00
10093;BME280;5085;48.092;11.484;2022-10-29T03:39:58;95936.50;;;10.78;100.00
10093;BME280;5085;48.092;11.484;2022-10-29T03:42:24;95936.50;;;10.78;100.00
10093;BME280;5085;48.092;11.484;2022-10-29T03:44:50;95929.22;;;10.79;100.00
10093;BME280;5085;48.092;11.484;2022-10-29T03:47:16;95933.78;;;10.78;100.00
10093;BME280;5085;48.092;11.484;2022-10-29T03:49:42;95926.53;;;10.79;100.00
10093;BME280;5085;48.092;11.484;2022-10-29T03:52:08;95922.22;;;10.77;100.00
10093;BME280;5085;48.092;11.484;2022-10-29T03:54:34;95928.97;;;10.80;100.00
10093;BME280;5085;48.092;11.484;2022-10-29T03:57:00;95918.75;;;10.82;100.00
10093;BME280;5085;48.092;11.484;2022-10-29T03:59:26;95928.22;;;10.85;100.00
10093;BME280;5085;48.092;11.484;2022-10-29T04:01:52;95922.81;;;10.85;100.00
10093;BME280;5085;48.092;11.484;2022-10-29T04:04:18;95916.94;;;10.88;100.00
10093;BME280;5085;48.092;11.484;2022-10-29T04:06:44;95918.28;;;10.90;100.00
10093;BME280;5085;48.092;11.484;2022-10-29T04:09:10;95918.56;;;10.94;100.00
10093;BME280;5085;48.092;11.484;2022-10-29T04:11:36;95920.50;;;10.98;100.00
10093;BME280;5085;48.092;11.484;2022-10-29T04:14:02;95911.91;;;11.01;100.00
10093;BME280;5085;48.092;11.484;2022-10-29T04:16:28;95913.31;;;11.09;100.00
10093;BME280;5085;48.092;11.484;2022-10-29T04:18:54;95920.66;;;11.19;100.00
10093;BME280;5085;48.092;11.484;2022-10-29T04:21:20;95916.91;;;11.25;100.00
10093;BME280;5085;48.092;11.484;2022-10-29T04:23:48;95919.69;;;11.30;100.00
10093;BME280;5085;48.092;11.484;2022-10-29T04:26:14;95922.41;;;11.35;100.00
10093;BME280;5085;48.092;11.484;2022-10-29T04:28:40;95920.53;;;11.41;100.00
10093;BME280;5085;48.092;11.484;2022-10-29T04:31:07;95925.16;;;11.45;100.00
10093;BME280;5085;48.092;11.484;2022-10-29T04:33:35;95927.34;;;11.48;100.00
10093;BME280;5085;48.092;11.484;2022-10-29T04:36:01;95924.13;;;11.51;100.00
10093;BME280;5085;48.092;11.484;2022-10-29T04:38:28;95927.09;;;11.55;100.00
10093;BME280;5085;48.092;11.484;2022-10-29T04:40:59;95927.94;;;11.56;100.00
10093;BME280;5085;48.092;11.484;2022-10-29T04:43:27;95926.84;;;11.57;100.00
10093;BME280;5085;48.092;11.484;2022-10-29T04:45:55;95915.25;;;11.56;100.00
10093;BME280;5085;48.092;11.484;2022-10-29T04:48:22;95921.44;;;11.57;100.00
10093;BME280;5085;48.092;11.484;2022-10-29T04:50:48;95921.69;;;11.55;100.00
10093;BME280;5085;48.092;11.484;2022-10-29T04:53:14;95909.03;;;11.56;100.00
10093;BME280;5085;48.092;11.484;2022-10-29T04:55:40;95907.41;;;11.55;100.00
10093;BME280;5085;48.092;11.484;2022-10-29T04:58:11;95903.66;;;11.56;100.00
10093;BME280;5085;48.092;11.484;2022-10-29T05:00:37;95914.44;;;11.56;100.00
10093;BME280;5085;48.092;11.484;2022-10-29T05:03:03;95912.28;;;11.58;100.00
10093;BME280;5085;48.092;11.484;2022-10-29T05:05:29;95909.59;;;11.58;100.00
10093;BME280;5085;48.092;11.484;2022-10-29T05:07:57;95909.03;;;11.56;100.00
10093;BME280;5085;48.092;11.484;2022-10-29T05:10:25;95901.47;;;11.52;100.00
10093;BME280;5085;48.092;11.484;2022-10-29T05:12:59;95903.88;;;11.49;100.00
10093;BME280;5085;48.092;11.484;2022-10-29T05:15:26;95907.34;;;11.44;100.00
10093;BME280;5085;48.092;11.484;2022-10-29T05:17:53;95908.94;;;11.40;100.00
10093;BME280;5085;48.092;11.484;2022-10-29T05:20:19;95904.59;;;11.34;100.00
10093;BME280;5085;48.092;11.484;2022-10-29T05:22:45;95914.00;;;11.32;100.00
10093;BME280;5085;48.092;11.484;2022-10-29T05:25:11;95915.59;;;11.27;100.00
10093;BME280;5085;48.092;11.484;2022-10-29T05:27:37;95923.66;;;11.22;100.00
10093;BME280;5085;48.092;11.484;2022-10-29T05:30:04;95923.91;;;11.21;100.00
10093;BME280;5085;48.092;11.484;2022-10-29T05:32:30;95921.47;;;11.19;100.00
10093;BME280;5085;48.092;11.484;2022-10-29T05:34:56;95917.16;;;11.18;100.00
10093;BME280;5085;48.092;11.484;2022-10-29T05:37:22;95915.00;;;11.20;100.00
10093;BME280;5085;48.092;11.484;2022-10-29T05:39:50;95908.56;;;11.21;100.00
10093;BME280;5085;48.092;11.484;2022-10-29T05:42:16;95905.91;;;11.26;100.00
10093;BME280;5085;48.092;11.484;2022-10-29T05:44:42;95915.63;;;11.33;100.00
10093;BME280;5085;48.092;11.484;2022-10-29T05:47:08;95905.69;;;11.38;100.00
10093;BME280;5085;48.092;11.484;2022-10-29T05:49:34;95911.66;;;11.45;100.00
10093;BME280;5085;48.092;11.484;2022-10-29T05:52:00;95912.78;;;11.55;100.00
10093;BME280;5085;48.092;11.484;2022-10-29T05:54:26;95910.16;;;11.60;100.00
10093;BME280;5085;48.092;11.484;2022-10-29T05:56:52;95909.38;;;11.64;100.00
10093;BME280;5085;48.092;11.484;2022-10-29T05:59:18;95918.56;;;11.73;100.00
10093;BME280;5085;48.092;11.484;2022-10-29T06:01:44;95922.09;;;11.79;100.00
10093;BME280;5085;48.092;11.484;2022-10-29T06:04:10;95916.50;;;11.86;100.00
10093;BME280;5085;48.092;11.484;2022-10-29T06:06:36;95925.16;;;11.88;100.00
10093;BME280;5085;48.092;11.484;2022-10-29T06:09:03;95930.84;;;11.91;100.00
10093;BME280;5085;48.092;11.484;2022-10-29T06:11:29;95933.00;;;11.94;100.00
10093;BME280;5085;48.092;11.484;2022-10-29T06:13:55;95939.75;;;11.97;100.00
10093;BME280;5085;48.092;11.484;2022-10-29T06:16:21;95938.44;;;11.99;100.00
10093;BME280;5085;48.092;11.484;2022-10-29T06:18:47;95935.75;;;12.05;100.00
10093;BME280;5085;48.092;11.484;2022-10-29T06:21:14;95940.09;;;12.11;100.00
10093;BME280;5085;48.092;11.484;2022-10-29T06:23:40;95935.81;;;12.20;100.00
10093;BME280;5085;48.092;11.484;2022-10-29T06:26:06;95936.44;;;12.52;100.00
10093;BME280;5085;48.092;11.484;2022-10-29T06:28:32;95940.56;;;12.70;100.00
10093;BME280;5085;48.092;11.484;2022-10-29T06:30:58;95942.72;;;12.79;100.00
10093;BME280;5085;48.092;11.484;2022-10-29T06:33:24;95935.44;;;12.84;100.00
10093;BME280;5085;48.092;11.484;2022-10-29T06:35:50;95941.91;;;12.93;100.00
10093;BME280;5085;48.092;11.484;2022-10-29T06:38:16;95936.78;;;13.02;100.00
10093;BME280;5085;48.092;11.484;2022-10-29T06:40:50;95942.47;;;13.16;100.00
10093;BME280;5085;48.092;11.484;2022-10-29T06:43:18;95947.34;;;13.29;100.00
10093;BME280;5085;48.092;11.484;2022-10-29T06:45:44;95950.34;;;13.43;100.00
10093;BME280;5085;48.092;11.484;2022-10-29T06:48:10;95945.19;;;13.57;100.00
10093;BME280;5085;48.092;11.484;2022-10-29T06:50:36;95952.19;;;13.73;100.00
10093;BME280;5085;48.092;11.484;2022-10-29T06:53:04;95953.78;;;13.89;100.00
10093;BME280;5085;48.092;11.484;2022-10-29T06:55:31;95955.34;;;14.06;100.00
10093;BME280;5085;48.092;11.484;2022-10-29T06:58:06;95961.78;;;14.25;100.00
10093;BME280;5085;48.092;11.484;2022-10-29T07:00:35;95957.88;;;14.46;100.00
10093;BME280;5085;48.092;11.484;2022-10-29T07:03:01;95951.59;;;14.66;100.00
10093;BME280;5085;48.092;11.484;2022-10-29T07:05:30;95951.69;;;14.90;100.00
10093;BME280;5085;48.092;11.484;2022-10-29T07:07:57;95952.31;;;15.16;100.00
10093;BME280;5085;48.092;11.484;2022-10-29T07:10:25;95946.94;;;15.45;97.57
10093;BME280;5085;48.092;11.484;2022-10-29T07:12:51;95951.03;;;15.77;95.39
10093;BME280;5085;48.092;11.484;2022-10-29T07:15:18;95951.72;;;16.12;92.00
10093;BME280;5085;48.092;11.484;2022-10-29T07:18:01;95959.31;;;16.58;88.59
10093;BME280;5085;48.092;11.484;2022-10-29T07:20:30;95952.66;;;17.07;84.81
10093;BME280;5085;48.092;11.484;2022-10-29T07:22:57;95959.75;;;17.59;80.77
10093;BME280;5085;48.092;11.484;2022-10-29T07:25:23;95962.59;;;18.14;77.11
10093;BME280;5085;48.092;11.484;2022-10-29T07:27:50;95959.44;;;18.62;74.22
10093;BME280;5085;48.092;11.484;2022-10-29T07:30:16;95971.31;;;19.08;72.03
10093;BME280;5085;48.092;11.484;2022-10-29T07:32:42;95969.06;;;19.32;69.78
10093;BME280;5085;48.092;11.484;2022-10-29T07:35:10;95969.97;;;19.41;70.40
10093;BME280;5085;48.092;11.484;2022-10-29T07:37:44;95973.44;;;19.33;66.74
10093;BME280;5085;48.092;11.484;2022-10-29T07:40:11;95976.66;;;19.35;64.53
10093;BME280;5085;48.092;11.484;2022-10-29T07:42:37;95969.84;;;19.46;64.89
10093;BME280;5085;48.092;11.484;2022-10-29T07:45:03;95972.13;;;19.67;65.27
10093;BME280;5085;48.092;11.484;2022-10-29T07:47:29;95972.81;;;19.59;65.16
10093;BME280;5085;48.092;11.484;2022-10-29T07:49:55;95979.41;;;19.35;65.88
10093;BME280;5085;48.092;11.484;2022-10-29T07:52:21;95974.72;;;19.13;66.37
10093;BME280;5085;48.092;11.484;2022-10-29T07:54:47;95977.41;;;18.91;67.93
10093;BME280;5085;48.092;11.484;2022-10-29T07:57:13;95985.72;;;18.72;69.82
10093;BME280;5085;48.092;11.484;2022-10-29T07:59:41;95978.44;;;18.54;70.26
10093;BME280;5085;48.092;11.484;2022-10-29T08:02:10;95968.34;;;18.40;71.76
10093;BME280;5085;48.092;11.484;2022-10-29T08:04:36;95972.59;;;18.33;72.29
10093;BME280;5085;48.092;11.484;2022-10-29T08:07:02;95972.69;;;18.28;72.72
10093;BME280;5085;48.092;11.484;2022-10-29T08:09:28;95963.19;;;18.25;73.20
10093;BME280;5085;48.092;11.484;2022-10-29T08:11:54;95966.72;;;18.26;74.31
10093;BME280;5085;48.092;11.484;2022-10-29T08:14:20;95968.53;;;18.30;75.05
10093;BME280;5085;48.092;11.484;2022-10-29T08:16:46;95969.06;;;18.32;75.83
10093;BME280;5085;48.092;11.484;2022-10-29T08:19:12;95963.00;;;18.35;75.98
10093;BME280;5085;48.092;11.484;2022-10-29T08:21:38;95968.13;;;18.37;74.71
10093;BME280;5085;48.092;11.484;2022-10-29T08:24:04;95965.91;;;18.39;73.48
10093;BME280;5085;48.092;11.484;2022-10-29T08:26:30;95968.03;;;18.42;72.71
10093;BME280;5085;48.092;11.484;2022-10-29T08:28:57;95965.00;;;18.43;70.92
10093;BME280;5085;48.092;11.484;2022-10-29T08:31:23;95963.28;;;18.47;70.18
10093;BME280;5085;48.092;11.484;2022-10-29T08:33:49;95956.94;;;18.52;69.84
10093;BME280;5085;48.092;11.484;2022-10-29T08:36:15;95961.97;;;18.59;68.06
10093;BME280;5085;48.092;11.484;2022-10-29T08:38:41;95958.03;;;18.65;67.79
10093;BME280;5085;48.092;11.484;2022-10-29T08:41:39;95960.03;;;18.73;67.94
10093;BME280;5085;48.092;11.484;2022-10-29T08:44:23;95955.50;;;18.82;66.87
10093;BME280;5085;48.092;11.484;2022-10-29T08:47:07;95957.19;;;18.92;66.04
10093;BME280;5085;48.092;11.484;2022-10-29T08:52:27;95952.88;;;19.13;65.31
10093;BME280;5085;48.092;11.484;2022-10-29T08:55:16;95954.25;;;19.25;64.66
10093;BME280;5085;48.092;11.484;2022-10-29T08:57:51;95954.19;;;19.38;64.38
10093;BME280;5085;48.092;11.484;2022-10-29T09:00:20;95948.66;;;19.52;63.46
10093;BME280;5085;48.092;11.484;2022-10-29T09:02:57;95949.59;;;19.70;62.26
10093;BME280;5085;48.092;11.484;2022-10-29T09:05:29;95943.44;;;19.87;60.53
10093;BME280;5085;48.092;11.484;2022-10-29T09:08:07;95953.81;;;20.07;59.85
10093;BME280;5085;48.092;11.484;2022-10-29T09:10:42;95949.59;;;20.32;59.13
10093;BME280;5085;48.092;11.484;2022-10-29T09:13:32;95951.00;;;20.61;59.93
10093;BME280;5085;48.092;11.484;2022-10-29T09:21:35;95963.03;;;22.92;52.25
10093;BME280;5085;48.092;11.484;2022-10-29T09:24:16;95956.88;;;23.91;49.59
10093;BME280;5085;48.092;11.484;2022-10-29T09:30:15;95966.28;;;26.18;46.49
10093;BME280;5085;48.092;11.484;2022-10-29T09:33:02;95971.88;;;27.71;41.79
10093;BME280;5085;48.092;11.484;2022-10-29T09:35:43;95960.53;;;29.10;39.11
10093;BME280;5085;48.092;11.484;2022-10-29T09:38:18;95965.13;;;30.23;37.60
10093;BME280;5085;48.092;11.484;2022-10-29T09:40:44;95973.66;;;30.82;35.04
10093;BME280;5085;48.092;11.484;2022-10-29T09:43:36;95966.97;;;30.90;35.08
10093;BME280;5085;48.092;11.484;2022-10-29T09:51:36;95968.53;;;32.41;32.23
10093;BME280;5085;48.092;11.484;2022-10-29T09:54:03;95970.56;;;32.87;31.18
10093;BME280;5085;48.092;11.484;2022-10-29T09:56:30;95962.19;;;33.22;30.61
10093;BME280;5085;48.092;11.484;2022-10-29T10:01:46;95959.72;;;34.44;28.06
10093;BME280;5085;48.092;11.484;2022-10-29T10:04:27;95953.66;;;35.09;27.33
10093;BME280;5085;48.092;11.484;2022-10-29T10:07:05;95952.19;;;35.72;27.23
10093;BME280;5085;48.092;11.484;2022-10-29T10:09:50;95947.66;;;36.16;26.76
10093;BME280;5085;48.092;11.484;2022-10-29T10:12:19;95945.19;;;36.49;25.60
10093;BME280;5085;48.092;11.484;2022-10-29T10:14:46;95937.31;;;36.91;24.75
10093;BME280;5085;48.092;11.484;2022-10-29T10:17:13;95936.63;;;37.10;23.57
10093;BME280;5085;48.092;11.484;2022-10-29T10:19:44;95939.41;;;37.10;24.24
10093;BME280;5085;48.092;11.484;2022-10-29T10:22:19;95943.78;;;36.07;24.83
10093;BME280;5085;48.092;11.484;2022-10-29T10:24:46;95932.91;;;35.78;25.34
10093;BME280;5085;48.092;11.484;2022-10-29T10:32:28;95917.72;;;35.75;25.05
10093;BME280;5085;48.092;11.484;2022-10-29T10:34:54;95916.22;;;35.67;25.67
10093;BME280;5085;48.092;11.484;2022-10-29T10:37:20;95923.94;;;35.22;27.44
10093;BME280;5085;48.092;11.484;2022-10-29T10:39:59;95917.88;;;34.26;27.41
10093;BME280;5085;48.092;11.484;2022-10-29T10:42:27;95905.34;;;33.75;28.59
10093;BME280;5085;48.092;11.484;2022-10-29T10:44:57;95897.84;;;33.62;26.96
10093;BME280;5085;48.092;11.484;2022-10-29T10:47:26;95901.09;;;34.23;27.73
10093;BME280;5085;48.092;11.484;2022-10-29T10:50:09;95900.84;;;35.07;26.92
10093;BME280;5085;48.092;11.484;2022-10-29T10:52:37;95894.25;;;35.62;26.65
10093;BME280;5085;48.092;11.484;2022-10-29T10:55:13;95894.56;;;36.02;25.55
10093;BME280;5085;48.092;11.484;2022-10-29T10:57:48;95884.38;;;36.39;25.85
10093;BME280;5085;48.092;11.484;2022-10-29T11:00:20;95881.16;;;36.67;26.93
10093;BME280;5085;48.092;11.484;2022-10-29T11:02:53;95882.97;;;36.77;27.38
10093;BME280;5085;48.092;11.484;2022-10-29T11:05:35;95877.22;;;37.08;26.86
10093;BME280;5085;48.092;11.484;2022-10-29T11:13:28;95871.50;;;37.75;23.63
10093;BME280;5085;48.092;11.484;2022-10-29T11:16:06;95869.47;;;37.75;24.55
10093;BME280;5085;48.092;11.484;2022-10-29T11:19:05;95867.97;;;37.71;24.99
10093;BME280;5085;48.092;11.484;2022-10-29T11:21:35;95865.94;;;37.32;24.23
10093;BME280;5085;48.092;11.484;2022-10-29T11:26:55;95858.63;;;36.47;26.09
10093;BME280;5085;48.092;11.484;2022-10-29T11:29:51;95854.78;;;36.61;26.09
10093;BME280;5085;48.092;11.484;2022-10-29T11:32:29;95851.22;;;36.81;26.38
10093;BME280;5085;48.092;11.484;2022-10-29T11:35:10;95844.69;;;36.87;27.69
10093;BME280;5085;48.092;11.484;2022-10-29T11:42:12;95834.44;;;37.00;24.81
10093;BME280;5085;48.092;11.484;2022-10-29T11:44:47;95838.09;;;37.41;24.37
10093;BME280;5085;48.092;11.484;2022-10-29T11:57:04;95827.06;;;38.55;23.17
10093;BME280;5085;48.092;11.484;2022-10-29T12:05:24;95821.97;;;38.34;23.52
10093;BME280;5085;48.092;11.484;2022-10-29T12:11:32;95808.75;;;38.31;22.78
10093;BME280;5085;48.092;11.484;2022-10-29T12:14:05;95803.75;;;38.71;23.63
10093;BME280;5085;48.092;11.484;2022-10-29T12:16:55;95804.84;;;38.73;24.29
10093;BME280;5085;48.092;11.484;2022-10-29T12:19:33;95800.56;;;38.85;23.88
10093;BME280;5085;48.092;11.484;2022-10-29T12:22:14;95799.03;;;38.97;22.53
10093;BME280;5085;48.092;11.484;2022-10-29T12:30:21;95795.13;;;39.36;21.74
10093;BME280;5085;48.092;11.484;2022-10-29T12:35:38;95791.31;;;39.43;22.33
10093;BME280;5085;48.092;11.484;2022-10-29T12:41:14;95787.25;;;39.44;21.63
10093;BME280;5085;48.092;11.484;2022-10-29T12:43:42;95779.78;;;39.37;21.88
10093;BME280;5085;48.092;11.484;2022-10-29T12:46:37;95793.88;;;39.08;21.75
10093;BME280;5085;48.092;11.484;2022-10-29T12:52:16;95772.00;;;39.12;22.85
10093;BME280;5085;48.092;11.484;2022-10-29T12:54:49;95764.06;;;38.94;22.96
10093;BME280;5085;48.092;11.484;2022-10-29T12:57:18;95764.53;;;38.93;22.35
10093;BME280;5085;48.092;11.484;2022-10-29T12:59:48;95762.13;;;38.62;23.79
10093;BME280;5085;48.092;11.484;2022-10-29T13:12:59;95752.22;;;37.36;25.13
10093;BME280;5085;48.092;11.484;2022-10-29T13:18:24;95747.72;;;37.59;24.07
10093;BME280;5085;48.092;11.484;2022-10-29T13:20:53;95744.31;;;37.67;24.48
10093;BME280;5085;48.092;11.484;2022-10-29T13:25:56;95743.50;;;37.87;24.88
10093;BME280;5085;48.092;11.484;2022-10-29T13:35:58;95731.97;;;36.65;25.12
10093;BME280;5085;48.092;11.484;2022-10-29T13:44:03;95736.34;;;34.77;26.93
10093;BME280;5085;48.092;11.484;2022-10-29T13:46:51;95730.44;;;33.81;28.41
10093;BME280;5085;48.092;11.484;2022-10-29T13:49:29;95732.44;;;33.11;28.64
10093;BME280;5085;48.092;11.484;2022-10-29T13:52:00;95725.00;;;32.76;29.25
10093;BME280;5085;48.092;11.484;2022-10-29T13:54:33;95721.06;;;32.52;30.82
10093;BME280;5085;48.092;11.484;2022-10-29T13:57:16;95719.94;;;32.03;32.47
10093;BME280;5085;48.092;11.484;2022-10-29T14:00:04;95719.50;;;31.51;32.43
10093;BME280;5085;48.092;11.484;2022-10-29T14:10:35;95711.13;;;29.43;37.79
10093;BME280;5085;48.092;11.484;2022-10-29T14:21:02;95702.56;;;27.25;43.82
10093;BME280;5085;48.092;11.484;2022-10-29T14:23:29;95701.88;;;26.89;45.52
10093;BME280;5085;48.092;11.484;2022-10-29T14:25:58;95702.81;;;26.58;46.70
10093;BME280;5085;48.092;11.484;2022-10-29T14:28:31;95706.91;;;26.29;48.34
10093;BME280;5085;48.092;11.484;2022-10-29T14:31:10;95714.84;;;25.95;49.82
10093;BME280;5085;48.092;11.484;2022-10-29T14:33:55;95710.59;;;25.66;51.04
10093;BME280;5085;48.092;11.484;2022-10-29T14:36:40;95705.88;;;25.35;52.65
10093;BME280;5085;48.092;11.484;2022-10-29T14:39:27;95699.59;;;25.06;54.06
10093;BME280;5085;48.092;11.484;2022-10-29T14:41:55;95704.88;;;24.83;55.13
10093;BME280;5085;48.092;11.484;2022-10-29T14:44:26;95705.78;;;24.59;57.20
10093;BME280;5085;48.092;11.484;2022-10-29T14:47:03;95697.91;;;24.33;58.47
10093;BME280;5085;48.092;11.484;2022-10-29T14:49:33;95698.09;;;24.12;60.76
10093;BME280;5085;48.092;11.484;2022-10-29T14:52:05;95705.38;;;23.92;61.79
10093;BME280;5085;48.092;11.484;2022-10-29T14:54:35;95703.53;;;23.72;63.02
10093;BME280;5085;48.092;11.484;2022-10-29T14:57:16;95700.88;;;23.51;61.94
10093;BME280;5085;48.092;11.484;2022-10-29T14:59:47;95700.44;;;23.37;60.43
10093;BME280;5085;48.092;11.484;2022-10-29T15:02:15;95709.47;;;23.25;59.56
10093;BME280;5085;48.092;11.484;2022-10-29T15:04:47;95704.38;;;23.15;59.53
10093;BME280;5085;48.092;11.484;2022-10-29T15:10:00;95697.97;;;22.99;64.54
10093;BME280;5085;48.092;11.484;2022-10-29T15:12:38;95703.38;;;22.86;67.65
10093;BME280;5085;48.092;11.484;2022-10-29T15:15:08;95703.69;;;22.73;67.95
10093;BME280;5085;48.092;11.484;2022-10-29T15:17:49;95699.97;;;22.56;69.56
10093;BME280;5085;48.092;11.484;2022-10-29T15:20:21;95704.13;;;22.41;71.67
10093;BME280;5085;48.092;11.484;2022-10-29T15:22:52;95702.31;;;22.25;73.68
10093;BME280;5085;48.092;11.484;2022-10-29T15:25:23;95698.09;;;22.06;75.01
10093;BME280;5085;48.092;11.484;2022-10-29T15:27:52;95704.97;;;21.91;76.79
10093;BME280;5085;48.092;11.484;2022-10-29T15:30:30;95704.56;;;21.81;75.18
10093;BME280;5085;48.092;11.484;2022-10-29T15:32:58;95698.53;;;21.66;75.77
10093;BME280;5085;48.092;11.484;2022-10-29T15:35:25;95694.88;;;21.54;76.04
10093;BME280;5085;48.092;11.484;2022-10-29T15:37:51;95696.38;;;21.42;76.65
10093;BME280;5085;48.092;11.484;2022-10-29T15:40:23;95704.47;;;21.30;77.83